Time;durP1;ratioP1;P1;durP2;ratioP2;P2;SDS_P1;SDS_P2;PMS_P1;PMS_P2;Temp;Humidity;BMP_temperature;BMP_pressure;BME280_temperature;BME280_humidity;BME280_pressure;Samples;Min_cycle;Max_cycle;Signal;HPM_P1;HPM_P2
2023/06/01 00:02:25;;;;;;;10.47;7.20;;;18.90;89.50;;;;;;5116458;27;20211;-65
2023/06/01 00:04:53;;;;;;;10.93;7.33;;;18.90;89.60;;;;;;5115028;27;20673;-65
2023/06/01 00:07:20;;;;;;;9.27;6.77;;;18.90;89.70;;;;;;5116320;27;20577;-65
2023/06/01 00:09:48;;;;;;;7.63;6.47;;;18.90;89.90;;;;;;5117798;27;20518;-65
2023/06/01 00:12:15;;;;;;;18.03;7.27;;;18.80;90.00;;;;;;5114297;27;20208;-65
2023/06/01 00:14:42;;;;;;;12.03;7.57;;;18.80;90.00;;;;;;5118876;27;20289;-65
2023/06/01 00:17:09;;;;;;;13.20;7.83;;;18.80;90.00;;;;;;5116890;27;20254;-65
2023/06/01 00:19:40;;;;;;;9.83;7.73;;;18.90;90.10;;;;;;5113703;27;20634;-66
2023/06/01 00:22:07;;;;;;;8.93;7.20;;;18.80;90.10;;;;;;5118298;27;20335;-65
2023/06/01 00:24:35;;;;;;;10.23;7.27;;;18.90;90.10;;;;;;5117727;27;20203;-65
2023/06/01 00:27:03;;;;;;;9.00;7.10;;;18.80;90.20;;;;;;5116740;27;20292;-65
2023/06/01 00:29:30;;;;;;;13.00;8.17;;;18.80;90.20;;;;;;5116549;27;20251;-65
2023/06/01 00:31:57;;;;;;;11.63;8.23;;;18.80;90.10;;;;;;5107790;28;20598;-65
2023/06/01 00:34:24;;;;;;;12.20;6.70;;;18.80;90.10;;;;;;5116132;27;20591;-65
2023/06/01 00:36:52;;;;;;;10.60;6.53;;;18.70;90.10;;;;;;5115077;27;20245;-66
2023/06/01 00:39:19;;;;;;;11.47;8.07;;;18.70;90.10;;;;;;5115143;27;20206;-65
2023/06/01 00:41:47;;;;;;;11.87;6.33;;;18.70;90.20;;;;;;5117478;27;20669;-66
2023/06/01 00:44:14;;;;;;;11.03;7.77;;;18.70;90.20;;;;;;5114132;27;20214;-65
2023/06/01 00:46:41;;;;;;;11.87;6.93;;;18.70;90.20;;;;;;5113789;27;20196;-66
2023/06/01 00:49:09;;;;;;;9.70;7.40;;;18.70;90.10;;;;;;5116133;27;20715;-65
2023/06/01 00:51:36;;;;;;;9.10;8.20;;;18.70;90.10;;;;;;5114061;28;20282;-66
2023/06/01 00:54:04;;;;;;;10.83;7.33;;;18.70;90.10;;;;;;5116726;27;20278;-66
2023/06/01 00:56:32;;;;;;;11.93;8.10;;;18.70;90.30;;;;;;5114717;27;20307;-65
2023/06/01 00:59:00;;;;;;;11.90;8.30;;;18.60;90.30;;;;;;5114798;27;20223;-66
2023/06/01 01:01:27;;;;;;;13.13;8.17;;;18.70;90.30;;;;;;5118473;27;20628;-66
2023/06/01 01:03:57;;;;;;;12.27;8.30;;;18.60;90.40;;;;;;5112194;27;20272;-65
2023/06/01 01:06:39;;;;;;;17.63;8.37;;;18.60;90.50;;;;;;5117185;27;20238;-65
2023/06/01 01:09:25;;;;;;;13.83;8.73;;;18.60;90.60;;;;;;5113738;27;20198;-65
2023/06/01 01:12:31;;;;;;;15.90;8.40;;;18.60;90.50;;;;;;5113841;27;20199;-65
2023/06/01 01:14:58;;;;;;;12.83;8.47;;;18.60;90.50;;;;;;5096643;28;20203;-65
2023/06/01 01:17:38;;;;;;;11.40;7.30;;;18.60;90.40;;;;;;5117981;27;20217;-66
2023/06/01 01:20:12;;;;;;;10.73;8.10;;;18.50;90.50;;;;;;5113650;27;20533;-66
2023/06/01 01:22:42;;;;;;;10.93;8.00;;;18.50;90.50;;;;;;5116997;27;20515;-65
2023/06/01 01:25:18;;;;;;;10.70;7.53;;;18.40;90.90;;;;;;5098847;28;22346;-65
2023/06/01 01:27:55;;;;;;;11.43;8.10;;;18.40;90.70;;;;;;5115552;27;20383;-66
2023/06/01 01:30:28;;;;;;;12.37;8.37;;;18.40;90.70;;;;;;5107475;28;20209;-65
2023/06/01 01:32:57;;;;;;;12.27;8.27;;;18.40;90.80;;;;;;5113404;27;20294;-66
2023/06/01 01:35:26;;;;;;;13.80;8.00;;;18.40;90.80;;;;;;5115272;27;20191;-65
2023/06/01 01:37:54;;;;;;;17.73;8.27;;;18.40;90.80;;;;;;5115101;27;20563;-66
2023/06/01 01:40:23;;;;;;;11.90;9.17;;;18.40;90.80;;;;;;5113399;28;20208;-65
2023/06/01 01:42:52;;;;;;;18.53;9.00;;;18.30;90.90;;;;;;5117073;27;20260;-65
2023/06/01 01:45:21;;;;;;;11.40;8.30;;;18.30;90.90;;;;;;5113374;27;20203;-65
2023/06/01 01:48:35;;;;;;;25.63;11.47;;;18.30;91.00;;;;;;5105792;27;20681;-66
2023/06/01 01:51:11;;;;;;;17.10;8.60;;;18.30;91.00;;;;;;5031118;28;20214;-66
2023/06/01 01:53:43;;;;;;;13.17;9.43;;;18.20;91.00;;;;;;5034013;28;20625;-65
2023/06/01 01:56:13;;;;;;;9.20;8.20;;;18.30;91.10;;;;;;5063133;27;20230;-65
2023/06/01 01:58:42;;;;;;;12.33;8.63;;;18.20;91.10;;;;;;5116905;27;20625;-65
2023/06/01 02:01:09;;;;;;;12.67;9.87;;;18.30;91.10;;;;;;5114674;27;20203;-65
2023/06/01 02:03:37;;;;;;;9.97;8.77;;;18.20;91.10;;;;;;5115324;27;20315;-65
2023/06/01 02:06:04;;;;;;;12.30;7.57;;;18.20;91.10;;;;;;5113696;27;20259;-65
2023/06/01 02:08:31;;;;;;;9.47;7.87;;;18.20;91.20;;;;;;5115047;27;20672;-65
2023/06/01 02:10:58;;;;;;;12.13;8.37;;;18.20;91.10;;;;;;5110884;28;20200;-65
2023/06/01 02:13:26;;;;;;;15.27;9.23;;;18.20;90.90;;;;;;5113026;27;20204;-65
2023/06/01 02:15:53;;;;;;;15.10;10.17;;;18.10;90.90;;;;;;5117005;28;20234;-65
2023/06/01 02:18:20;;;;;;;16.93;10.10;;;18.10;91.00;;;;;;5112078;27;20626;-65
2023/06/01 02:20:47;;;;;;;15.20;9.90;;;18.10;91.00;;;;;;5114953;28;20607;-65
2023/06/01 02:23:14;;;;;;;13.33;10.73;;;18.10;91.00;;;;;;5115903;28;20277;-65
2023/06/01 02:25:41;;;;;;;15.80;11.50;;;18.10;91.10;;;;;;5123619;27;20210;-65
2023/06/01 02:28:10;;;;;;;14.47;11.13;;;18.00;91.10;;;;;;5112283;27;20313;-65
2023/06/01 02:30:37;;;;;;;17.57;11.43;;;18.00;91.20;;;;;;5117122;28;20594;-65
2023/06/01 02:33:04;;;;;;;14.90;11.30;;;18.00;91.20;;;;;;5113124;28;20311;-65
2023/06/01 02:35:32;;;;;;;14.07;10.87;;;18.00;91.20;;;;;;5117530;28;20641;-65
2023/06/01 02:37:59;;;;;;;16.40;11.43;;;18.00;91.20;;;;;;5112219;28;20225;-65
2023/06/01 02:40:28;;;;;;;16.37;10.63;;;18.00;91.20;;;;;;5113941;28;20449;-65
2023/06/01 02:42:55;;;;;;;15.37;12.23;;;18.00;91.30;;;;;;5116913;28;20618;-66
2023/06/01 02:45:22;;;;;;;14.63;10.97;;;17.90;91.40;;;;;;5115129;28;20640;-65
2023/06/01 02:47:49;;;;;;;17.07;12.13;;;18.00;91.50;;;;;;5117732;28;20306;-66
2023/06/01 02:50:17;;;;;;;13.83;10.23;;;17.90;91.50;;;;;;5114497;28;20214;-65
2023/06/01 02:52:48;;;;;;;21.63;11.27;;;17.90;91.50;;;;;;5113105;28;20611;-65
2023/06/01 02:55:16;;;;;;;11.33;10.07;;;17.90;91.50;;;;;;5114648;28;20712;-65
2023/06/01 02:58:04;;;;;;;14.30;10.53;;;17.90;91.60;;;;;;5112790;28;20264;-65
2023/06/01 03:00:45;;;;;;;18.17;9.70;;;17.90;91.70;;;;;;5127949;27;20205;-66
2023/06/01 03:03:12;;;;;;;12.50;10.70;;;17.90;91.60;;;;;;5115498;28;20262;-65
2023/06/01 03:05:39;;;;;;;16.57;11.17;;;17.80;91.30;;;;;;5113009;28;20267;-65
2023/06/01 03:08:27;;;;;;;17.30;12.47;;;17.80;91.30;;;;;;5111609;28;20234;-65
2023/06/01 03:10:54;;;;;;;18.40;12.50;;;17.70;91.30;;;;;;5101286;28;20253;-65
2023/06/01 03:13:26;;;;;;;20.80;13.40;;;17.70;91.20;;;;;;5115891;28;20251;-66
2023/06/01 03:15:53;;;;;;;20.97;14.17;;;17.70;91.20;;;;;;5101812;28;20306;-66
2023/06/01 03:18:21;;;;;;;19.03;13.13;;;17.60;91.20;;;;;;5114524;27;20229;-66
2023/06/01 03:20:48;;;;;;;16.90;13.00;;;17.60;91.30;;;;;;5119412;27;20209;-66
2023/06/01 03:23:15;;;;;;;17.13;13.77;;;17.50;91.30;;;;;;5117943;27;20202;-66
2023/06/01 03:25:43;;;;;;;18.37;13.47;;;17.50;91.40;;;;;;5120274;27;20206;-66
2023/06/01 03:28:10;;;;;;;16.83;13.17;;;17.50;91.60;;;;;;5113828;27;20217;-65
2023/06/01 03:30:39;;;;;;;17.13;12.63;;;17.50;91.60;;;;;;5113287;27;20228;-65
2023/06/01 03:33:06;;;;;;;20.67;14.27;;;17.40;91.50;;;;;;5118054;27;20205;-65
2023/06/01 03:35:33;;;;;;;18.63;13.47;;;17.40;91.50;;;;;;5119870;27;20292;-65
2023/06/01 03:38:01;;;;;;;18.70;14.37;;;17.40;91.40;;;;;;5102089;27;20667;-66
2023/06/01 03:40:28;;;;;;;20.17;14.30;;;17.40;91.40;;;;;;5116542;27;20214;-65
2023/06/01 03:42:55;;;;;;;19.10;14.97;;;17.30;91.40;;;;;;5118434;27;20199;-65
2023/06/01 03:45:22;;;;;;;19.57;15.17;;;17.30;91.50;;;;;;5119101;27;20201;-66
2023/06/01 03:47:49;;;;;;;19.83;14.13;;;17.30;91.50;;;;;;5109021;27;20253;-66
2023/06/01 03:50:16;;;;;;;24.33;16.17;;;17.30;91.60;;;;;;5117311;27;20684;-66
2023/06/01 03:52:44;;;;;;;22.43;15.27;;;17.30;91.70;;;;;;5117087;27;20531;-65
2023/06/01 03:55:13;;;;;;;18.47;15.20;;;17.30;91.80;;;;;;5118000;27;20275;-65
2023/06/01 03:57:58;;;;;;;20.50;15.87;;;17.30;91.90;;;;;;5119398;27;20220;-66
2023/06/01 04:00:26;;;;;;;22.10;16.60;;;17.30;91.90;;;;;;5115841;27;20297;-66
2023/06/01 04:03:07;;;;;;;18.60;15.23;;;17.30;91.90;;;;;;5119510;27;20298;-65
2023/06/01 04:05:36;;;;;;;25.27;16.13;;;17.30;91.90;;;;;;5103333;28;20207;-66
2023/06/01 04:08:04;;;;;;;26.93;17.23;;;17.40;91.90;;;;;;5115666;27;20214;-65
2023/06/01 04:10:31;;;;;;;30.27;19.03;;;17.40;91.80;;;;;;5119382;27;20270;-66
2023/06/01 04:12:58;;;;;;;28.40;19.27;;;17.40;91.70;;;;;;5115090;27;20190;-65
2023/06/01 04:15:28;;;;;;;26.83;18.47;;;17.40;91.80;;;;;;5117206;27;20277;-65
2023/06/01 04:17:56;;;;;;;32.00;21.73;;;17.30;91.90;;;;;;5117083;27;20239;-65
2023/06/01 04:20:24;;;;;;;23.07;19.47;;;17.40;92.00;;;;;;5117327;27;20300;-65
2023/06/01 04:22:51;;;;;;;29.77;19.30;;;17.40;92.10;;;;;;5116371;27;20266;-65
2023/06/01 04:25:18;;;;;;;26.17;19.97;;;17.40;92.20;;;;;;5120925;27;20202;-66
2023/06/01 04:27:51;;;;;;;27.50;18.60;;;17.50;92.30;;;;;;5116088;27;20204;-65
2023/06/01 04:30:19;;;;;;;27.83;19.50;;;17.60;92.20;;;;;;5115167;27;20542;-66
2023/06/01 04:32:48;;;;;;;24.53;20.03;;;17.60;92.20;;;;;;5117058;27;20224;-65
2023/06/01 04:35:17;;;;;;;30.93;19.23;;;17.70;92.10;;;;;;5118415;27;20202;-65
2023/06/01 04:37:44;;;;;;;24.63;19.93;;;17.70;92.10;;;;;;5098184;27;20709;-65
2023/06/01 04:40:13;;;;;;;26.77;19.93;;;17.80;92.10;;;;;;5117535;27;20600;-66
2023/06/01 04:42:45;;;;;;;30.63;21.20;;;17.90;92.20;;;;;;5118365;27;20265;-65
2023/06/01 04:45:13;;;;;;;28.10;19.77;;;17.90;92.10;;;;;;5116095;27;20207;-65
2023/06/01 04:47:44;;;;;;;26.87;20.57;;;18.00;92.10;;;;;;5117404;27;20722;-65
2023/06/01 04:50:19;;;;;;;29.50;22.00;;;18.10;92.10;;;;;;5112558;27;20568;-65
2023/06/01 04:52:49;;;;;;;28.40;20.67;;;18.20;92.10;;;;;;5103957;28;20211;-65
2023/06/01 04:55:16;;;;;;;26.37;21.87;;;18.20;92.10;;;;;;5114204;27;20202;-65
2023/06/01 04:57:43;;;;;;;30.87;21.70;;;18.30;92.10;;;;;;5112814;27;20240;-65
2023/06/01 05:00:13;;;;;;;27.17;20.53;;;18.40;92.10;;;;;;5119307;27;20605;-65
2023/06/01 05:02:42;;;;;;;24.97;21.43;;;18.50;92.10;;;;;;5119634;27;20221;-66
2023/06/01 05:05:11;;;;;;;24.40;21.80;;;18.60;92.00;;;;;;5115397;27;20243;-65
2023/06/01 05:07:39;;;;;;;25.10;19.80;;;18.70;92.00;;;;;;5117477;27;20202;-65
2023/06/01 05:10:08;;;;;;;23.37;20.87;;;18.70;91.90;;;;;;5115703;27;20210;-65
2023/06/01 05:12:42;;;;;;;29.70;20.33;;;18.80;91.90;;;;;;5111985;27;20217;-65
2023/06/01 05:15:11;;;;;;;22.80;19.93;;;18.90;91.80;;;;;;5117840;27;20204;-65
2023/06/01 05:17:39;;;;;;;26.53;18.97;;;19.00;91.70;;;;;;5116731;27;20191;-65
2023/06/01 05:20:11;;;;;;;24.53;19.87;;;19.10;91.70;;;;;;5103725;27;20209;-66
2023/06/01 05:22:41;;;;;;;25.67;18.90;;;19.20;91.60;;;;;;5128995;27;20193;-65
2023/06/01 05:25:08;;;;;;;20.00;17.83;;;19.40;91.40;;;;;;5118335;27;20530;-64
2023/06/01 05:27:36;;;;;;;21.57;18.40;;;19.50;91.10;;;;;;5116231;27;20211;-65
2023/06/01 05:30:05;;;;;;;22.13;17.47;;;19.70;91.00;;;;;;5117800;27;20280;-64
2023/06/01 05:32:32;;;;;;;23.83;16.87;;;19.70;90.90;;;;;;5116660;27;20193;-65
2023/06/01 05:35:09;;;;;;;19.90;16.10;;;19.80;90.90;;;;;;5115326;27;20200;-65
2023/06/01 05:37:37;;;;;;;19.50;16.13;;;19.90;90.80;;;;;;5127257;27;20238;-65
2023/06/01 05:40:07;;;;;;;22.13;16.70;;;20.00;90.60;;;;;;5117363;27;20203;-66
2023/06/01 05:42:36;;;;;;;17.90;16.00;;;20.10;90.40;;;;;;5111360;28;20307;-66
2023/06/01 05:45:04;;;;;;;20.60;16.07;;;20.20;90.30;;;;;;5115762;27;20201;-65
2023/06/01 05:47:31;;;;;;;21.73;15.97;;;20.30;90.20;;;;;;5115517;27;20681;-65
2023/06/01 05:49:58;;;;;;;17.67;15.77;;;20.40;90.00;;;;;;5115091;27;20216;-66
2023/06/01 05:52:25;;;;;;;17.87;15.67;;;20.40;89.20;;;;;;5117464;27;20224;-66
2023/06/01 05:54:53;;;;;;;20.30;16.20;;;20.40;89.60;;;;;;5115031;27;20268;-66
2023/06/01 05:57:20;;;;;;;18.57;16.53;;;20.40;90.00;;;;;;5116574;27;20203;-66
2023/06/01 05:59:48;;;;;;;19.87;15.83;;;20.50;90.10;;;;;;5118650;27;20280;-66
2023/06/01 06:02:17;;;;;;;18.47;16.20;;;20.60;90.20;;;;;;5115598;27;20328;-66
2023/06/01 06:04:44;;;;;;;18.10;13.63;;;20.70;90.30;;;;;;5115916;27;20287;-65
2023/06/01 06:07:11;;;;;;;18.57;15.00;;;20.80;90.30;;;;;;5117202;27;20268;-65
2023/06/01 06:09:38;;;;;;;18.33;14.00;;;21.00;90.00;;;;;;5114506;27;20220;-65
2023/06/01 06:12:06;;;;;;;19.73;14.70;;;21.20;89.80;;;;;;5120996;27;20284;-66
2023/06/01 06:14:33;;;;;;;17.43;13.70;;;21.30;89.40;;;;;;5115045;27;20538;-66
2023/06/01 06:17:00;;;;;;;17.80;12.20;;;21.50;88.80;;;;;;5115513;27;20207;-65
2023/06/01 06:19:27;;;;;;;19.27;13.60;;;21.60;87.50;;;;;;5117941;27;20583;-66
2023/06/01 06:21:55;;;;;;;16.57;13.50;;;21.70;86.40;;;;;;5115877;27;20204;-65
2023/06/01 06:24:22;;;;;;;19.07;13.00;;;21.80;85.70;;;;;;5116273;28;20257;-65
2023/06/01 06:26:49;;;;;;;17.97;12.80;;;21.80;84.80;;;;;;5118651;28;20206;-66
2023/06/01 06:29:16;;;;;;;16.87;13.93;;;21.80;84.50;;;;;;5114166;28;20722;-66
2023/06/01 06:31:45;;;;;;;16.93;13.23;;;21.80;84.70;;;;;;5116469;28;20199;-65
2023/06/01 06:34:12;;;;;;;16.47;12.80;;;21.80;85.00;;;;;;5116074;28;20193;-66
2023/06/01 06:36:40;;;;;;;20.13;13.67;;;21.90;85.70;;;;;;5118304;28;20261;-66
2023/06/01 06:39:07;;;;;;;18.33;13.37;;;22.10;86.00;;;;;;5105470;28;20222;-64
2023/06/01 06:41:34;;;;;;;14.93;12.93;;;22.30;85.70;;;;;;5114930;28;20266;-63
2023/06/01 06:44:01;;;;;;;17.07;12.93;;;22.50;85.30;;;;;;5115744;28;20649;-64
2023/06/01 06:46:28;;;;;;;14.00;12.17;;;22.70;85.10;;;;;;5115379;28;20207;-65
2023/06/01 06:48:55;;;;;;;16.10;12.37;;;22.90;84.50;;;;;;5117934;28;20288;-64
2023/06/01 06:51:22;;;;;;;13.93;12.33;;;23.10;83.50;;;;;;5118465;28;20193;-65
2023/06/01 06:53:49;;;;;;;13.90;12.20;;;23.30;82.10;;;;;;5117958;27;20196;-64
2023/06/01 06:56:17;;;;;;;15.63;12.13;;;23.40;82.60;;;;;;5119500;27;20291;-64
2023/06/01 06:58:45;;;;;;;13.57;12.17;;;23.60;81.80;;;;;;5120963;27;20238;-63
2023/06/01 07:01:26;;;;;;;17.93;12.00;;;23.80;81.20;;;;;;5117629;27;20204;-65
2023/06/01 07:03:55;;;;;;;15.77;11.00;;;24.00;80.50;;;;;;5117627;27;20229;-64
2023/06/01 07:06:22;;;;;;;12.97;11.03;;;24.20;79.70;;;;;;5118640;27;20196;-64
2023/06/01 07:08:49;;;;;;;12.33;11.00;;;24.30;78.70;;;;;;5118984;27;20516;-65
2023/06/01 07:11:17;;;;;;;13.00;9.97;;;24.40;78.20;;;;;;5119364;27;20548;-65
2023/06/01 07:13:44;;;;;;;14.83;11.27;;;24.60;78.10;;;;;;5121347;27;20732;-63
2023/06/01 07:16:11;;;;;;;12.03;10.10;;;24.80;77.30;;;;;;5117405;27;20198;-65
2023/06/01 07:18:38;;;;;;;12.37;9.17;;;24.90;75.20;;;;;;5122021;27;20206;-64
2023/06/01 07:21:05;;;;;;;13.07;10.67;;;25.00;75.10;;;;;;5123655;27;20547;-65
2023/06/01 07:23:32;;;;;;;13.07;10.10;;;25.10;74.20;;;;;;5117115;27;20201;-66
2023/06/01 07:25:59;;;;;;;13.93;10.30;;;25.20;74.30;;;;;;5121926;27;20202;-64
2023/06/01 07:28:27;;;;;;;12.43;10.57;;;25.30;73.60;;;;;;5121282;27;20203;-64
2023/06/01 07:30:54;;;;;;;11.80;9.83;;;25.50;72.50;;;;;;5117698;27;20580;-65
2023/06/01 07:33:22;;;;;;;12.77;9.97;;;25.60;72.40;;;;;;5116446;28;20214;-64
2023/06/01 07:35:52;;;;;;;10.97;9.23;;;25.70;72.60;;;;;;5120531;27;20204;-65
2023/06/01 07:38:20;;;;;;;16.23;10.00;;;25.90;72.10;;;;;;5118891;27;20199;-64
2023/06/01 07:40:47;;;;;;;13.00;9.77;;;26.00;71.60;;;;;;5121712;27;20264;-65
2023/06/01 07:43:14;;;;;;;12.67;10.03;;;26.20;71.30;;;;;;5120597;27;20200;-65
2023/06/01 07:45:41;;;;;;;10.27;9.23;;;26.30;70.70;;;;;;5117592;27;20264;-65
2023/06/01 07:48:08;;;;;;;11.40;10.03;;;26.50;70.60;;;;;;5120800;27;20281;-64
2023/06/01 07:50:37;;;;;;;15.60;9.50;;;26.50;69.90;;;;;;5118863;27;20227;-66
2023/06/01 07:53:04;;;;;;;12.73;9.53;;;26.60;69.30;;;;;;5116947;27;20251;-65
2023/06/01 07:55:31;;;;;;;10.00;9.00;;;26.70;69.20;;;;;;5121424;27;20204;-65
2023/06/01 07:57:59;;;;;;;12.10;9.03;;;26.70;69.00;;;;;;5116560;27;20197;-65
2023/06/01 08:00:26;;;;;;;11.40;8.93;;;26.80;68.90;;;;;;5117160;27;20203;-65
2023/06/01 08:02:53;;;;;;;12.53;9.83;;;26.90;68.80;;;;;;5118245;27;20650;-66
2023/06/01 08:05:20;;;;;;;11.97;9.50;;;27.00;68.40;;;;;;5120554;27;20252;-65
2023/06/01 08:07:48;;;;;;;12.70;9.27;;;27.10;67.30;;;;;;5114343;27;20257;-65
2023/06/01 08:10:16;;;;;;;13.90;10.27;;;27.10;67.50;;;;;;5119515;27;20662;-64
2023/06/01 08:12:43;;;;;;;13.57;10.37;;;27.20;67.20;;;;;;5119114;27;20205;-65
2023/06/01 08:15:11;;;;;;;17.07;11.57;;;27.30;66.30;;;;;;5117059;27;20206;-64
2023/06/01 08:17:38;;;;;;;17.13;9.80;;;27.30;65.60;;;;;;5122219;27;20192;-65
2023/06/01 08:20:10;;;;;;;11.07;9.90;;;27.40;66.20;;;;;;5119346;27;20212;-65
2023/06/01 08:22:38;;;;;;;13.47;10.13;;;27.40;66.00;;;;;;5113035;27;20258;-65
2023/06/01 08:25:05;;;;;;;14.40;11.23;;;27.40;64.90;;;;;;5122363;27;20200;-65
2023/06/01 08:27:32;;;;;;;15.03;10.67;;;27.40;64.40;;;;;;5117489;27;20207;-65
2023/06/01 08:29:59;;;;;;;10.73;9.63;;;27.30;64.60;;;;;;5117315;27;20709;-65
2023/06/01 08:32:26;;;;;;;13.13;10.30;;;27.30;65.20;;;;;;5118802;27;20196;-66
2023/06/01 08:34:53;;;;;;;16.53;10.57;;;27.30;65.10;;;;;;5109878;27;20531;-65
2023/06/01 08:37:20;;;;;;;9.53;8.00;;;27.40;64.00;;;;;;5114445;27;20197;-65
2023/06/01 08:39:47;;;;;;;11.37;8.13;;;27.40;62.00;;;;;;5115953;27;20205;-65
2023/06/01 08:42:23;;;;;;;12.33;9.80;;;27.30;62.60;;;;;;5117791;27;20196;-65
2023/06/01 08:44:53;;;;;;;10.67;9.00;;;27.20;61.30;;;;;;5106095;28;20569;-66
2023/06/01 08:47:24;;;;;;;10.80;8.53;;;27.20;63.30;;;;;;5122494;27;20296;-65
2023/06/01 08:49:52;;;;;;;11.47;9.93;;;27.20;62.60;;;;;;5118273;27;20301;-66
2023/06/01 08:52:21;;;;;;;13.57;10.03;;;27.20;63.70;;;;;;5113495;27;20287;-65
2023/06/01 08:54:49;;;;;;;11.27;10.07;;;27.30;63.40;;;;;;5119659;27;20531;-65
2023/06/01 08:57:17;;;;;;;10.70;9.60;;;27.30;62.80;;;;;;5118704;27;20201;-65
2023/06/01 08:59:45;;;;;;;10.33;8.80;;;27.30;62.70;;;;;;5119334;27;20195;-65
2023/06/01 09:02:15;;;;;;;13.90;8.93;;;27.30;61.70;;;;;;5114180;27;20211;-65
2023/06/01 09:04:44;;;;;;;9.63;8.63;;;27.30;61.50;;;;;;5113479;27;20211;-65
2023/06/01 09:07:15;;;;;;;13.07;9.40;;;27.40;62.10;;;;;;5115536;27;20264;-65
2023/06/01 09:09:43;;;;;;;10.37;8.97;;;27.40;63.40;;;;;;5115450;27;20296;-64
2023/06/01 09:12:21;;;;;;;12.23;9.57;;;27.50;62.80;;;;;;5113724;27;20197;-64
2023/06/01 09:14:48;;;;;;;13.07;9.77;;;27.40;62.00;;;;;;5117507;27;20188;-66
2023/06/01 09:17:21;;;;;;;14.90;9.47;;;27.50;62.60;;;;;;5117485;27;20678;-67
2023/06/01 09:19:53;;;;;;;14.93;9.77;;;27.60;61.70;;;;;;5116370;27;20204;-66
2023/06/01 09:22:20;;;;;;;10.63;8.27;;;27.70;61.90;;;;;;5119309;27;20199;-64
2023/06/01 09:24:59;;;;;;;12.73;10.13;;;28.00;61.90;;;;;;5118302;27;20200;-65
2023/06/01 09:27:27;;;;;;;12.20;9.73;;;28.20;61.30;;;;;;5114234;28;20224;-66
2023/06/01 09:30:01;;;;;;;11.20;9.53;;;28.40;60.30;;;;;;5117380;27;20227;-65
2023/06/01 09:32:28;;;;;;;9.57;8.57;;;28.50;59.50;;;;;;5119466;27;20195;-64
2023/06/01 09:34:55;;;;;;;16.50;8.63;;;28.60;58.70;;;;;;5114400;27;20591;-66
2023/06/01 09:37:22;;;;;;;12.33;10.23;;;28.60;58.30;;;;;;5120013;27;20224;-64
2023/06/01 09:39:49;;;;;;;10.40;8.27;;;28.70;58.50;;;;;;5118386;27;20208;-66
2023/06/01 09:42:16;;;;;;;9.90;8.23;;;28.70;58.20;;;;;;5116359;27;20208;-65
2023/06/01 09:44:45;;;;;;;8.23;7.23;;;28.80;59.80;;;;;;5120180;27;20200;-64
2023/06/01 09:47:12;;;;;;;10.07;6.70;;;28.80;58.40;;;;;;5119163;27;20535;-65
2023/06/01 09:49:44;;;;;;;13.20;7.00;;;28.80;58.20;;;;;;5114603;27;20275;-65
2023/06/01 09:52:16;;;;;;;9.80;6.60;;;28.80;57.90;;;;;;5118013;27;20211;-65
2023/06/01 09:54:49;;;;;;;7.00;6.23;;;28.90;58.10;;;;;;5116664;27;20201;-64
2023/06/01 09:57:29;;;;;;;7.57;6.23;;;29.10;58.10;;;;;;5114061;28;20316;-66
2023/06/01 09:59:57;;;;;;;10.33;6.23;;;29.20;56.10;;;;;;5117957;27;20223;-66
2023/06/01 10:02:24;;;;;;;9.33;6.57;;;29.20;55.70;;;;;;5115836;27;20642;-66
2023/06/01 10:04:57;;;;;;;7.67;6.23;;;29.20;56.00;;;;;;5117161;27;20206;-67
2023/06/01 10:07:33;;;;;;;10.17;5.57;;;29.30;55.70;;;;;;5116903;27;20752;-67
2023/06/01 10:10:02;;;;;;;8.07;6.50;;;29.40;55.40;;;;;;5112881;27;20210;-64
2023/06/01 10:12:31;;;;;;;6.83;5.17;;;29.50;54.80;;;;;;5113782;27;20192;-65
2023/06/01 10:15:03;;;;;;;8.63;5.47;;;29.60;53.80;;;;;;5117394;27;20245;-65
2023/06/01 10:17:48;;;;;;;10.03;6.50;;;29.70;54.70;;;;;;5113424;28;20281;-68
2023/06/01 10:20:16;;;;;;;10.50;6.47;;;29.80;55.60;;;;;;5116772;27;20203;-64
2023/06/01 10:22:43;;;;;;;9.37;6.03;;;29.90;55.40;;;;;;5114890;27;20567;-66
2023/06/01 10:25:16;;;;;;;10.33;5.37;;;29.90;55.40;;;;;;5116117;28;20196;-66
2023/06/01 10:27:55;;;;;;;6.90;5.30;;;30.00;54.40;;;;;;5118633;27;20192;-67
2023/06/01 10:30:22;;;;;;;7.23;4.90;;;30.00;53.90;;;;;;5114419;27;20544;-64
2023/06/01 10:32:49;;;;;;;5.27;4.77;;;30.00;54.70;;;;;;5114847;27;20199;-66
2023/06/01 10:35:28;;;;;;;7.37;6.30;;;30.00;53.70;;;;;;5116129;28;20196;-66
2023/06/01 10:38:13;;;;;;;8.23;5.70;;;29.90;53.80;;;;;;5114568;28;20212;-65
2023/06/01 10:40:42;;;;;;;6.90;5.67;;;29.80;53.80;;;;;;5115690;28;20200;-66
2023/06/01 10:43:38;;;;;;;7.37;6.20;;;29.80;54.10;;;;;;5119056;28;20630;-65
2023/06/01 10:46:30;;;;;;;8.20;5.23;;;29.90;53.10;;;;;;5115130;28;20204;-65
2023/06/01 10:48:58;;;;;;;5.13;4.63;;;30.10;53.30;;;;;;5113442;28;20245;-64
2023/06/01 10:51:25;;;;;;;6.77;4.83;;;30.30;53.40;;;;;;5120355;28;20212;-65
2023/06/01 10:53:52;;;;;;;6.10;4.83;;;30.30;52.80;;;;;;5115224;27;20195;-66
2023/06/01 10:56:24;;;;;;;5.17;4.30;;;30.50;53.20;;;;;;5116104;28;20278;-65
2023/06/01 10:59:15;;;;;;;6.90;4.70;;;30.50;53.00;;;;;;5116958;28;20193;-67
2023/06/01 11:01:46;;;;;;;6.00;5.00;;;30.70;50.60;;;;;;5102029;28;20240;-64
2023/06/01 11:04:14;;;;;;;5.23;4.70;;;30.80;50.60;;;;;;5114047;28;20204;-64
2023/06/01 11:06:43;;;;;;;5.73;5.00;;;30.80;51.00;;;;;;5116825;27;20654;-65
2023/06/01 11:09:12;;;;;;;8.40;4.90;;;30.90;51.00;;;;;;5114285;28;20283;-65
2023/06/01 11:11:52;;;;;;;6.53;5.80;;;30.80;50.60;;;;;;5117224;28;20212;-66
2023/06/01 11:14:30;;;;;;;7.17;4.83;;;30.50;51.40;;;;;;5115366;28;20287;-67
2023/06/01 11:17:28;;;;;;;6.60;4.80;;;30.50;52.60;;;;;;5114183;28;20196;-61
2023/06/01 11:20:04;;;;;;;7.87;4.30;;;30.60;51.50;;;;;;5118667;28;20201;-64
2023/06/01 11:22:35;;;;;;;4.23;3.83;;;30.70;52.10;;;;;;5116500;28;20188;-67
2023/06/01 11:25:06;;;;;;;6.07;4.33;;;30.60;51.10;;;;;;5117307;28;20201;-64
2023/06/01 11:27:33;;;;;;;35.63;5.87;;;30.40;50.80;;;;;;5116975;28;20537;-64
2023/06/01 11:30:00;;;;;;;8.93;4.27;;;30.30;52.30;;;;;;5114606;28;20227;-67
2023/06/01 11:32:29;;;;;;;4.33;3.87;;;30.40;51.60;;;;;;5111935;28;20226;-65
2023/06/01 11:34:56;;;;;;;4.10;3.70;;;30.50;50.40;;;;;;5116015;28;20288;-63
2023/06/01 11:37:25;;;;;;;5.03;3.77;;;30.50;50.40;;;;;;5116321;28;20196;-63
2023/06/01 11:40:04;;;;;;;4.37;3.27;;;30.30;51.20;;;;;;5120305;27;20253;-62
2023/06/01 11:42:36;;;;;;;4.40;3.30;;;30.30;52.00;;;;;;5120951;27;20290;-64
2023/06/01 11:45:04;;;;;;;5.50;3.80;;;30.40;51.90;;;;;;5116903;27;20278;-65
2023/06/01 11:47:31;;;;;;;4.87;4.30;;;30.50;51.70;;;;;;5116833;27;20232;-64
2023/06/01 11:49:59;;;;;;;5.73;4.30;;;30.80;51.80;;;;;;5119578;27;20223;-66
2023/06/01 11:52:27;;;;;;;9.33;4.03;;;31.00;51.20;;;;;;5116346;27;20205;-67
2023/06/01 11:55:01;;;;;;;4.70;3.53;;;31.20;49.40;;;;;;5117532;27;20268;-65
2023/06/01 11:57:29;;;;;;;5.00;4.47;;;31.30;49.50;;;;;;5117221;27;20203;-66
2023/06/01 11:59:58;;;;;;;5.97;4.87;;;31.30;49.20;;;;;;5117379;27;20284;-65
2023/06/01 12:02:29;;;;;;;6.63;4.53;;;31.40;48.70;;;;;;5117237;27;20567;-64
2023/06/01 12:05:13;;;;;;;7.00;4.53;;;31.30;48.50;;;;;;5121874;27;20282;-66
2023/06/01 12:07:50;;;;;;;5.33;4.30;;;31.00;47.70;;;;;;5116793;27;20594;-67
2023/06/01 12:10:20;;;;;;;6.67;4.40;;;30.60;49.80;;;;;;5122668;27;20641;-66
2023/06/01 12:12:47;;;;;;;6.50;5.13;;;30.20;50.30;;;;;;5117029;27;20278;-66
2023/06/01 12:15:16;;;;;;;9.13;5.03;;;29.80;51.30;;;;;;5115506;27;20201;-66
2023/06/01 12:17:51;;;;;;;6.87;5.33;;;29.70;51.70;;;;;;5123090;27;20320;-66
2023/06/01 12:20:27;;;;;;;6.63;5.33;;;29.70;52.70;;;;;;5117765;27;20308;-66
2023/06/01 12:22:55;;;;;;;9.33;5.47;;;29.80;52.50;;;;;;5115497;27;20193;-66
2023/06/01 12:25:23;;;;;;;6.83;5.13;;;29.90;53.60;;;;;;5119824;27;20223;-67
2023/06/01 12:28:04;;;;;;;7.37;4.87;;;30.00;52.80;;;;;;5118306;27;20625;-67
2023/06/01 12:30:32;;;;;;;7.50;4.80;;;30.00;52.30;;;;;;5115565;27;20273;-67
2023/06/01 12:33:00;;;;;;;4.77;4.13;;;30.10;53.00;;;;;;5117666;27;20188;-67
2023/06/01 12:35:27;;;;;;;5.70;5.10;;;30.10;51.30;;;;;;5118021;27;20649;-64
2023/06/01 12:38:09;;;;;;;8.47;5.33;;;30.10;50.50;;;;;;5114083;27;20274;-67
2023/06/01 12:40:38;;;;;;;8.87;5.13;;;30.10;51.50;;;;;;5113554;27;20192;-67
2023/06/01 12:43:16;;;;;;;6.50;4.70;;;30.20;51.00;;;;;;5117416;27;20204;-66
2023/06/01 12:45:44;;;;;;;7.73;4.77;;;30.20;51.40;;;;;;5113182;28;20570;-67
2023/06/01 12:48:33;;;;;;;5.27;4.77;;;30.30;51.30;;;;;;5118958;27;20231;-67
2023/06/01 12:51:01;;;;;;;13.73;4.70;;;30.30;51.30;;;;;;5115812;27;20208;-66